Paw Creek, North Carolina
Current Conditions -  °F | °C
As of 7:52 AM on Wednesday 22 Oct 2014 (Local Time) from KCLT Reporting Station
Few Clouds Few Clouds  
Wind Chill: 44°   Ceiling: Unl
Heat Index: 47°   Visibility: 10mi
Dew Point: 36°   Wind: 7mph
Humidity: 66%   Direction: 330°NNW
Pressure: 30.04"   Gusts: NA
Location:  35.28°N, 80.94°W
Report Text: KCLT 221152Z 33006KT 10SM FEW250 08/02 A3004 RMK AO2 SLP171 T00830022 10111 20083 53017
Loading
Personal Weather Stations






























Interactive Weather Map
Tropical Storm Tracking
New forecast layout! Learn more

10-Day Weather Forecast

Advertisements
Track Severe Weather on mobile